Portada
METAR-TAF:

METAR-TAF

Aeropuertos :

Alicante, España

Aeropuerto de Alicante-Elche

latitud: 38-17N, longitud: 000-33W, altitud: 43 m

Observación

El informe se hizo hace 26 minutos, a las 18:00 UTC
Viento 6 kt del este-noreste
Temperatura 23°C
Humedad 73%
Presión 1019 hPa
Visibilidad 10 km o más
sin nubes por debajo de 1500 m y sin presencia de cumulonimbus.

METAR: LEAL 231800Z 07006KT CAVOK 23/18 Q1019 NOSIG

Hora: 20:26 (18:26 UTC)

Pronóstico

El informe se hizo hace 1 hora y 26 minutos, a las 17:00 UTC
Pronóstico válido del 23 a las 18 UTC al 24 a las 18 UTC
Viento 8 kt del este
Visibilidad 10 km o más
Escasas nubes a una altura de 2000 ft
Evolucionando progresivamente
del 23 a las 20 UTC al 23 a las 22 UTC
Viento 5 kt del norte-noroeste
Evolucionando progresivamente
del 24 a las 10 UTC al 24 a las 13 UTC
Viento 10 kt del sur

TAF: LEAL 231700Z 2318/2418 08008KT 9999 FEW020 TX27/2412Z TN17/2406Z BECMG 2320/2322 33005KT BECMG 2410/2413 18010KT

Observaciones y pronósticos meteorológicos de más de 4000 aeropuertos (mensajes METAR y TAF).

Los puntos amarillos y rojos representan las estaciones disponibles.

Ponga el ratón en el punto deseado para ver el nombre de la estación.

Haga clic para ver las observaciones y los pronósticos meteorológicos.

Para cambiar el mapa : haga clic en los botones verdes con una cruz de color negro para hacer un zoom, en el botón verde con un guión para alejar o en las flechas verdes para mapas adyacentes.


METAR-TAF: